KCOS/COS METAR and TAF weather

Enter ICAO airport designator
Station Type Date Time Source
KCOS METAR 2022/06/28 22:54 UTC NOAA

KCOS 282254Z 17012G21KT 10SM FEW140 SCT200 30/01 A3029 RMK AO2 LTG DSNT NW SLP170 VIRGA SW-NW CB DSNT NW STNRY T03000011


Station Type Date Time Source
KCOS Decoded METAR 2022/06/28 22:54 UTC NOAA

COLORADO SPRINGS MUNI, CO, United States (KCOS) 38-49N 104-43W 1856M
Jun 28, 2022 - 06:54 PM EDT / 2022.06.28 2254 UTC
Wind: from the S (170 degrees) at 14 MPH (12 KT) gusting to 24 MPH (21 KT):0
Visibility: 10 mile(s):0
Sky conditions: partly cloudy
Weather: Cumulonimbus clouds, lightning observed
Temperature: 86.0 F (30.0 C)
Dew Point: 34.0 F (1.1 C)
Relative Humidity: 15%
Pressure (altimeter): 30.29 in. Hg (1025 hPa)
ob: KCOS 282254Z 17012G21KT 10SM FEW140 SCT200 30/01 A3029 RMK AO2 LTG DSNT NW SLP170 VIRGA SW-NW CB DSNT NW STNRY T03000011
cycle: 23

Station Type Date Time Source
KCOS TAF 2022/06/28 19:18 UTC NOAA

TAF
AMD KCOS 281914Z 2819/2918 17015G25KT P6SM SCT100
FM290200 17008KT P6SM SCT120 SCT200
FM290600 03007KT P6SM FEW200
FM291100 VRB05KT P6SM FEW200

Example: see airport list